Station Historical Data
Daily Summary for March 22, 2017 Units:  English    Metric   Both
Next Day »
Daily Weekly Monthly Yearly Custom
  High: Low: Average:
Temperature: 46.1 °F 38.2 °F 42.1 °F
Dew Point: 43.2 °F 35.8 °F 39.6 °F
Humidity: 92% 86% 91%
Wind Speed: 15.0mph 0.0mph 3.1mph
Wind Gust: 20.0mph - -
Wind- - SE
Pressure: 30.14 in 29.99 in -
Precipitation: 0.00 in    
Historical Graphs
 
 
Tabular Data for March 22, 2017
Time Temperature Dew Point Pressure Wind Wind Speed Wind Gust Humidity Rainfall Rate (Hourly) solar Conditions
00:06 42.4 °F 40.0 °F 30.03 in Calm   8.0 mph 91% 0.00 in 0.00 W/m2
00:11 42.4 °F 40.0 °F 30.03 in Calm   7.0 mph 91% 0.00 in 0.00 W/m2
00:16 42.3 °F 39.9 °F 30.03 in ESE 4.0 mph 5.0 mph 91% 0.00 in 0.00 W/m2
00:21 42.3 °F 39.9 °F 30.03 in ESE 4.0 mph 6.0 mph 91% 0.00 in 0.00 W/m2
00:26 42.2 °F 39.8 °F 30.03 in ESE 2.0 mph 8.0 mph 91% 0.00 in 0.00 W/m2
00:31 42.2 °F 39.8 °F 30.03 in Calm     91% 0.00 in 0.00 W/m2
00:36 42.2 °F 39.8 °F 30.03 in Calm   7.0 mph 91% 0.00 in 0.00 W/m2
00:41 42.1 °F 39.7 °F 30.03 in ESE 4.0 mph 4.0 mph 91% 0.00 in 0.00 W/m2
00:46 42.1 °F 39.7 °F 30.03 in ESE 1.0 mph 6.0 mph 91% 0.00 in 0.00 W/m2
00:51 42.0 °F 39.6 °F 30.03 in ESE 2.0 mph 7.0 mph 91% 0.00 in 0.00 W/m2
00:56 42.0 °F 39.6 °F 30.03 in ESE 6.0 mph 8.0 mph 91% 0.00 in 0.00 W/m2
01:01 41.9 °F 39.5 °F 30.03 in Calm   6.0 mph 91% 0.00 in 0.00 W/m2
01:06 41.9 °F 39.5 °F 30.03 in ESE 2.0 mph 8.0 mph 91% 0.00 in 0.00 W/m2
01:11 41.9 °F 39.5 °F 30.02 in Calm   8.0 mph 91% 0.00 in 0.00 W/m2
01:16 41.9 °F 39.5 °F 30.02 in ESE 1.0 mph 7.0 mph 91% 0.00 in 0.00 W/m2
01:21 41.9 °F 39.5 °F 30.02 in ESE 4.0 mph 8.0 mph 91% 0.00 in 0.00 W/m2
01:26 41.9 °F 39.5 °F 30.02 in ESE 5.0 mph 7.0 mph 91% 0.00 in 0.00 W/m2
01:31 41.9 °F 39.5 °F 30.02 in ESE 2.0 mph 7.0 mph 91% 0.00 in 0.00 W/m2
01:36 41.8 °F 39.4 °F 30.02 in ESE 2.0 mph 6.0 mph 91% 0.00 in 0.00 W/m2
01:41 41.8 °F 39.4 °F 30.02 in ESE 2.0 mph 8.0 mph 91% 0.00 in 0.00 W/m2
01:46 41.8 °F 39.4 °F 30.01 in ESE 2.0 mph 12.0 mph 91% 0.00 in 0.00 W/m2
01:56 41.8 °F 39.4 °F 30.01 in ESE 2.0 mph 7.0 mph 91% 0.00 in 0.00 W/m2
02:01 41.8 °F 39.4 °F 30.02 in Calm   6.0 mph 91% 0.00 in 0.00 W/m2
02:06 41.8 °F 39.4 °F 30.02 in Calm   7.0 mph 91% 0.00 in 0.00 W/m2
02:11 41.8 °F 39.4 °F 30.02 in Calm     91% 0.00 in 0.00 W/m2
02:16 41.8 °F 39.4 °F 30.02 in ESE 2.0 mph 6.0 mph 91% 0.00 in 0.00 W/m2
02:21 41.8 °F 39.4 °F 30.02 in Calm   1.0 mph 91% 0.00 in 0.00 W/m2
02:26 41.8 °F 39.4 °F 30.02 in ESE 1.0 mph 1.0 mph 91% 0.00 in 0.00 W/m2
02:31 41.8 °F 39.4 °F 30.02 in Calm     91% 0.00 in 0.00 W/m2
02:36 41.8 °F 39.4 °F 30.01 in Calm   1.0 mph 91% 0.00 in 0.00 W/m2
02:41 41.8 °F 39.4 °F 30.01 in Calm   2.0 mph 91% 0.00 in 0.00 W/m2
02:46 41.9 °F 39.5 °F 30.01 in Calm   2.0 mph 91% 0.00 in 0.00 W/m2
02:51 41.9 °F 39.5 °F 30.01 in ESE 2.0 mph 5.0 mph 91% 0.00 in 0.00 W/m2
02:56 42.0 °F 39.6 °F 30.01 in ESE 5.0 mph 5.0 mph 91% 0.00 in 0.00 W/m2
03:01 42.0 °F 39.6 °F 30.01 in Calm   5.0 mph 91% 0.00 in 0.00 W/m2
03:06 42.1 °F 39.7 °F 30.01 in ESE 5.0 mph 5.0 mph 91% 0.00 in 0.00 W/m2
03:11 42.1 °F 39.7 °F 30.01 in Calm     91% 0.00 in 0.00 W/m2
03:16 42.2 °F 39.8 °F 30.00 in ESE 4.0 mph 4.0 mph 91% 0.00 in 0.00 W/m2
03:21 42.2 °F 39.8 °F 30.00 in SE 5.0 mph 5.0 mph 91% 0.00 in 0.00 W/m2
03:26 42.3 °F 39.9 °F 30.00 in ESE 1.0 mph 6.0 mph 91% 0.00 in 0.00 W/m2
03:31 42.4 °F 40.0 °F 29.99 in SE 5.0 mph 7.0 mph 91% 0.00 in 0.00 W/m2
03:36 42.4 °F 40.0 °F 29.99 in ESE 5.0 mph 6.0 mph 91% 0.00 in 0.00 W/m2
03:41 42.5 °F 40.1 °F 29.99 in SE 2.0 mph 6.0 mph 91% 0.00 in 0.00 W/m2
03:46 42.5 °F 40.1 °F 29.99 in ESE 7.0 mph 7.0 mph 91% 0.00 in 0.00 W/m2
03:51 42.5 °F 40.1 °F 29.99 in Calm   4.0 mph 91% 0.00 in 0.00 W/m2
03:56 42.6 °F 40.2 °F 29.99 in SE 5.0 mph 7.0 mph 91% 0.00 in 0.00 W/m2
04:01 42.7 °F 40.3 °F 29.99 in SE 4.0 mph 4.0 mph 91% 0.00 in 0.00 W/m2
04:06 42.7 °F 40.3 °F 29.99 in SE 5.0 mph 5.0 mph 91% 0.00 in 0.00 W/m2
04:11 42.8 °F 40.4 °F 29.99 in SE 2.0 mph 5.0 mph 91% 0.00 in 0.00 W/m2
04:16 42.8 °F 40.4 °F 29.99 in SE 5.0 mph 12.0 mph 91% 0.00 in 0.00 W/m2
04:21 43.0 °F 40.6 °F 29.99 in SE 9.0 mph 14.0 mph 91% 0.00 in 0.00 W/m2
04:26 43.1 °F 40.7 °F 29.99 in Calm   1.0 mph 91% 0.00 in 0.00 W/m2
04:31 43.2 °F 40.8 °F 29.99 in SSE 1.0 mph 1.0 mph 91% 0.00 in 0.00 W/m2
04:37 43.3 °F 40.8 °F 29.99 in SSE 9.0 mph 15.0 mph 91% 0.21 in 0.00 W/m2
04:42 43.4 °F 41.0 °F 30.00 in Calm   2.0 mph 91% 0.08 in 0.00 W/m2
04:47 43.5 °F 41.0 °F 30.00 in Calm   1.0 mph 91% 0.40 in 0.00 W/m2
04:52 43.4 °F 41.0 °F 30.00 in Calm   7.0 mph 91% 0.12 in 0.00 W/m2
04:57 43.4 °F 41.0 °F 30.00 in Calm     91% 0.09 in 0.00 W/m2
05:02 43.4 °F 41.0 °F 30.00 in Calm     91% 0.07 in 0.00 W/m2
05:07 43.3 °F 40.8 °F 30.00 in Calm     91% 0.04 in 0.00 W/m2
05:12 43.2 °F 40.8 °F 30.00 in Calm     91% 0.18 in 0.00 W/m2
05:17 43.1 °F 40.7 °F 30.00 in WSW 2.0 mph 2.0 mph 91% 0.44 in 0.00 W/m2
05:22 43.0 °F 40.6 °F 30.01 in WSW 12.0 mph 12.0 mph 91% 0.31 in 0.00 W/m2
05:27 43.0 °F 40.6 °F 30.01 in WSW 9.0 mph 9.0 mph 91% 0.25 in 0.00 W/m2
05:32 43.0 °F 40.6 °F 30.01 in SW 10.0 mph 14.0 mph 91% 0.43 in 0.00 W/m2
05:37 43.0 °F 40.6 °F 30.01 in SSW 10.0 mph 11.0 mph 91% 0.31 in 0.00 W/m2
05:42 43.0 °F 40.6 °F 30.02 in SSW 10.0 mph 14.0 mph 91% 1.63 in 0.00 W/m2
05:47 42.8 °F 40.4 °F 30.02 in SSW 5.0 mph 7.0 mph 91% 0.41 in 0.00 W/m2
05:57 42.5 °F 40.1 °F 30.02 in Calm     91% 0.16 in 0.00 W/m2
06:02 42.4 °F 40.0 °F 30.02 in Calm     91% 0.16 in 0.00 W/m2
06:07 42.3 °F 39.9 °F 30.02 in Calm     91% 0.17 in 0.00 W/m2
06:12 42.3 °F 39.9 °F 30.03 in SSW 9.0 mph 10.0 mph 91% 0.33 in 0.00 W/m2
06:17 42.3 °F 39.9 °F 30.03 in SW 6.0 mph 6.0 mph 91% 0.20 in 0.00 W/m2
06:22 42.3 °F 39.9 °F 30.03 in SW 5.0 mph 12.0 mph 91% 0.21 in 0.00 W/m2
06:27 42.2 °F 39.8 °F 30.03 in Calm   12.0 mph 91% 0.19 in 0.00 W/m2
06:32 42.1 °F 39.7 °F 30.03 in Calm     91% 0.20 in 0.00 W/m2
06:37 42.0 °F 39.6 °F 30.03 in Calm   8.0 mph 91% 0.20 in 0.00 W/m2
06:42 41.9 °F 39.5 °F 30.03 in SSW 2.0 mph 10.0 mph 91% 0.20 in 0.00 W/m2
06:47 41.8 °F 39.4 °F 30.04 in Calm     91% 0.20 in 0.00 W/m2
06:52 41.6 °F 39.2 °F 30.03 in SSW 5.0 mph 9.0 mph 91% 0.18 in 0.00 W/m2
06:57 41.5 °F 39.1 °F 30.03 in Calm   3.0 mph 91% 0.18 in 0.00 W/m2
07:02 41.5 °F 39.1 °F 30.04 in Calm     91% 0.28 in 0.00 W/m2
07:07 41.4 °F 39.0 °F 30.04 in SSW 3.0 mph 11.0 mph 91% 0.31 in 0.00 W/m2
07:12 41.2 °F 38.8 °F 30.04 in Calm     91% 0.18 in 0.00 W/m2
07:17 41.1 °F 38.7 °F 30.04 in Calm     91% 0.14 in 0.00 W/m2
07:22 41.0 °F 38.6 °F 30.04 in Calm     91% 0.18 in 0.00 W/m2
07:27 40.9 °F 38.5 °F 30.04 in Calm     91% 0.16 in 0.00 W/m2
07:32 40.8 °F 38.4 °F 30.04 in Calm     91% 0.17 in 0.00 W/m2
07:37 40.8 °F 38.4 °F 30.05 in Calm     91% 0.18 in 5.00 W/m2
07:42 40.8 °F 38.4 °F 30.05 in Calm     91% 0.21 in 5.00 W/m2
07:47 40.8 °F 38.4 °F 30.05 in Calm     91% 0.18 in 5.00 W/m2
07:52 40.8 °F 38.4 °F 30.06 in Calm     91% 0.18 in 5.00 W/m2
07:57 40.8 °F 38.4 °F 30.06 in Calm     91% 0.13 in 7.00 W/m2
08:03 40.8 °F 38.4 °F 30.06 in Calm     91% 0.20 in 7.00 W/m2
08:08 40.8 °F 38.4 °F 30.07 in South 11.0 mph 12.0 mph 91% 0.31 in 11.00 W/m2
08:13 40.6 °F 38.2 °F 30.06 in SE 5.0 mph 11.0 mph 91% 0.18 in 11.00 W/m2
08:18 40.5 °F 38.1 °F 30.06 in SE 8.0 mph 11.0 mph 91% 0.15 in 11.00 W/m2
08:23 40.4 °F 38.0 °F 30.07 in SE 10.0 mph 13.0 mph 91% 0.17 in 12.00 W/m2
08:28 40.2 °F 37.8 °F 30.07 in SE 7.0 mph 10.0 mph 91% 0.15 in 12.00 W/m2
08:33 40.1 °F 37.7 °F 30.07 in SSE 11.0 mph 15.0 mph 91% 0.23 in 16.00 W/m2
08:38 40.0 °F 37.6 °F 30.07 in SE 4.0 mph 9.0 mph 91% 0.18 in 19.00 W/m2
08:43 39.8 °F 37.4 °F 30.07 in SE 8.0 mph 12.0 mph 91% 0.20 in 23.00 W/m2
08:48 39.7 °F 37.3 °F 30.07 in SE 6.0 mph 9.0 mph 91% 0.16 in 21.00 W/m2
08:53 39.6 °F 37.2 °F 30.07 in SE 11.0 mph 14.0 mph 91% 0.14 in 21.00 W/m2
08:58 39.6 °F 37.2 °F 30.07 in SE 12.0 mph 14.0 mph 91% 0.16 in 33.00 W/m2
09:03 39.5 °F 37.1 °F 30.07 in ESE 6.0 mph 16.0 mph 91% 0.17 in 49.00 W/m2
09:08 39.4 °F 37.0 °F 30.07 in ESE 4.0 mph 14.0 mph 91% 0.07 in 47.00 W/m2
09:13 39.3 °F 36.9 °F 30.06 in SE 12.0 mph 16.0 mph 91% 0.05 in 56.00 W/m2
09:18 39.2 °F 36.8 °F 30.07 in ESE 12.0 mph 15.0 mph 91% 0.05 in 65.00 W/m2
09:23 39.2 °F 36.8 °F 30.07 in ESE 9.0 mph 20.0 mph 91% 0.05 in 63.00 W/m2
09:24 39.2 °F 36.8 °F 30.07 in ESE 12.0 mph 20.0 mph 91% 0.05 in 76.00 W/m2
09:29 39.1 °F 36.7 °F 30.07 in ESE 14.0 mph 18.0 mph 91% 0.04 in 67.00 W/m2
09:34 38.9 °F 36.5 °F 30.08 in ESE 9.0 mph 17.0 mph 91% 0.00 in 46.00 W/m2
09:39 38.8 °F 36.4 °F 30.08 in SE 12.0 mph 16.0 mph 91% 0.00 in 35.00 W/m2
09:44 38.8 °F 36.4 °F 30.08 in SE 11.0 mph 13.0 mph 91% 0.00 in 35.00 W/m2
09:49 38.6 °F 36.2 °F 30.08 in SE 7.0 mph 14.0 mph 91% 0.14 in 42.00 W/m2
09:50 38.7 °F 36.3 °F 30.08 in SE 8.0 mph 14.0 mph 91% 0.14 in 42.00 W/m2
09:55 38.6 °F 36.2 °F 30.09 in SE 9.0 mph 12.0 mph 91% 0.23 in 42.00 W/m2
10:00 38.5 °F 36.1 °F 30.09 in SE 11.0 mph 13.0 mph 91% 0.15 in 39.00 W/m2
10:05 38.4 °F 36.0 °F 30.09 in SE 4.0 mph 14.0 mph 91% 0.16 in 49.00 W/m2
10:10 38.4 °F 36.0 °F 30.09 in ESE 11.0 mph 13.0 mph 91% 0.13 in 67.00 W/m2
10:15 38.3 °F 35.9 °F 30.09 in ESE 7.0 mph 15.0 mph 91% 0.13 in 70.00 W/m2
10:20 38.3 °F 35.9 °F 30.09 in SE 15.0 mph 18.0 mph 91% 0.13 in 81.00 W/m2
10:25 38.3 °F 35.9 °F 30.09 in ESE 5.0 mph 14.0 mph 91% 0.13 in 83.00 W/m2
10:30 38.2 °F 35.8 °F 30.09 in SE 6.0 mph 14.0 mph 91% 0.06 in 95.00 W/m2
10:35 38.2 °F 35.8 °F 30.09 in SE 10.0 mph 18.0 mph 91% 0.04 in 97.00 W/m2
10:40 38.2 °F 35.8 °F 30.09 in ESE 12.0 mph 14.0 mph 91% 0.00 in 105.00 W/m2
10:45 38.2 °F 35.8 °F 30.09 in ESE 6.0 mph 17.0 mph 91% 0.00 in 107.00 W/m2
10:50 38.2 °F 35.8 °F 30.09 in ESE 5.0 mph 14.0 mph 91% 0.00 in 127.00 W/m2
10:55 38.3 °F 35.9 °F 30.09 in SE 9.0 mph 18.0 mph 91% 0.00 in 165.00 W/m2
11:00 38.4 °F 36.0 °F 30.09 in SE 4.0 mph 19.0 mph 91% 0.00 in 178.00 W/m2
11:05 38.5 °F 36.1 °F 30.10 in ESE 9.0 mph 15.0 mph 91% 0.00 in 199.00 W/m2
11:10 38.6 °F 36.2 °F 30.09 in SE 6.0 mph 15.0 mph 91% 0.00 in 229.00 W/m2
11:15 38.8 °F 36.4 °F 30.09 in ESE 8.0 mph 15.0 mph 91% 0.00 in 232.00 W/m2
11:20 39.0 °F 36.6 °F 30.09 in ESE 6.0 mph 18.0 mph 91% 0.00 in 232.00 W/m2
11:25 39.1 °F 36.7 °F 30.10 in ESE 5.0 mph 17.0 mph 91% 0.00 in 162.00 W/m2
11:30 39.2 °F 36.8 °F 30.10 in ESE 6.0 mph 15.0 mph 91% 0.00 in 211.00 W/m2
11:35 39.3 °F 36.9 °F 30.10 in East 11.0 mph 18.0 mph 91% 0.00 in 190.00 W/m2
11:40 39.3 °F 36.9 °F 30.10 in SE 5.0 mph 16.0 mph 91% 0.00 in 223.00 W/m2
11:45 39.4 °F 37.0 °F 30.10 in ESE 4.0 mph 18.0 mph 91% 0.00 in 223.00 W/m2
11:50 39.4 °F 37.0 °F 30.11 in ESE 4.0 mph 18.0 mph 91% 0.00 in 225.00 W/m2
11:55 39.5 °F 37.1 °F 30.11 in ESE 4.0 mph 14.0 mph 91% 0.00 in 192.00 W/m2
12:00 39.5 °F 37.1 °F 30.10 in SE 4.0 mph 13.0 mph 91% 0.00 in 209.00 W/m2
12:01 39.6 °F 37.2 °F 30.11 in ESE 5.0 mph 13.0 mph 91% 0.00 in 213.00 W/m2
12:11 39.7 °F 37.3 °F 30.11 in SE 9.0 mph 14.0 mph 91% 0.00 in 269.00 W/m2
12:16 39.9 °F 37.5 °F 30.10 in ESE 12.0 mph 14.0 mph 91% 0.00 in 352.00 W/m2
12:18 40.0 °F 37.6 °F 30.10 in East 4.0 mph 14.0 mph 91% 0.00 in 399.00 W/m2
12:21 40.0 °F 37.6 °F 30.10 in ESE 7.0 mph 15.0 mph 91% 0.00 in 388.00 W/m2
12:25 40.2 °F 37.8 °F 30.10 in Calm   13.0 mph 91% 0.00 in 367.00 W/m2
12:27 40.2 °F 37.8 °F 30.11 in ESE 4.0 mph 14.0 mph 91% 0.00 in 369.00 W/m2
12:30 40.4 °F 38.0 °F 30.10 in ESE 8.0 mph 14.0 mph 91% 0.00 in 403.00 W/m2
12:33 40.5 °F 38.4 °F 30.10 in ESE 5.0 mph 15.0 mph 92% 0.00 in 371.00 W/m2
12:35 40.6 °F 38.5 °F 30.10 in SE 9.0 mph 15.0 mph 92% 0.00 in 350.00 W/m2
12:38 40.7 °F 38.3 °F 30.11 in ESE 2.0 mph 12.0 mph 91% 0.00 in 283.00 W/m2
12:40 40.8 °F 38.4 °F 30.11 in SE 10.0 mph 14.0 mph 91% 0.00 in 237.00 W/m2
12:45 41.0 °F 38.6 °F 30.10 in ESE 8.0 mph 13.0 mph 91% 0.00 in 148.00 W/m2
12:50 41.0 °F 38.9 °F 30.10 in SE 4.0 mph 11.0 mph 92% 0.00 in 171.00 W/m2
12:55 41.0 °F 38.9 °F 30.10 in SE 2.0 mph 9.0 mph 92% 0.00 in 243.00 W/m2
12:57 41.1 °F 39.0 °F 30.10 in ESE 6.0 mph 12.0 mph 92% 0.00 in 243.00 W/m2
13:02 41.2 °F 39.1 °F 30.10 in ESE 6.0 mph 8.0 mph 92% 0.00 in 366.00 W/m2
13:03 41.2 °F 39.1 °F 30.10 in Calm   9.0 mph 92% 0.00 in 346.00 W/m2
13:06 41.3 °F 39.2 °F 30.10 in Calm   9.0 mph 92% 0.00 in 287.00 W/m2
13:11 41.5 °F 39.1 °F 30.10 in Calm     91% 0.00 in 279.00 W/m2
13:16 41.7 °F 39.3 °F 30.10 in SE 7.0 mph 9.0 mph 91% 0.00 in 269.00 W/m2
13:21 41.8 °F 39.7 °F 30.10 in Calm     92% 0.00 in 179.00 W/m2
13:26 41.9 °F 39.8 °F 30.10 in Calm     92% 0.00 in 197.00 W/m2
13:31 42.0 °F 39.8 °F 30.11 in Calm     92% 0.00 in 216.00 W/m2
13:34 42.0 °F 39.8 °F 30.10 in Calm     92% 0.00 in 223.00 W/m2
13:36 42.0 °F 39.8 °F 30.11 in Calm     92% 0.00 in 323.00 W/m2
13:41 42.1 °F 39.7 °F 30.10 in Calm     91% 0.00 in 487.00 W/m2
13:46 42.3 °F 39.9 °F 30.10 in Calm     91% 0.00 in 450.00 W/m2
13:51 42.4 °F 40.2 °F 30.10 in Calm     92% 0.00 in 454.00 W/m2
13:56 42.6 °F 40.4 °F 30.10 in SSE 5.0 mph 5.0 mph 92% 0.00 in 475.00 W/m2
14:01 43.1 °F 40.9 °F 30.10 in Calm     92% 0.00 in 519.00 W/m2
14:06 43.5 °F 41.3 °F 30.09 in SSE 8.0 mph 11.0 mph 92% 0.00 in 492.00 W/m2
14:08 43.6 °F 41.4 °F 30.10 in Calm   11.0 mph 92% 0.00 in 693.00 W/m2
14:10 43.7 °F 41.5 °F 30.09 in Calm   11.0 mph 92% 0.00 in 693.00 W/m2
14:15 44.1 °F 41.9 °F 30.09 in Calm   9.0 mph 92% 0.00 in 434.00 W/m2
14:20 44.3 °F 42.1 °F 30.09 in South 6.0 mph 12.0 mph 92% 0.00 in 907.00 W/m2
14:25 44.6 °F 42.4 °F 30.09 in SSE 6.0 mph 15.0 mph 92% 0.00 in 490.00 W/m2
14:30 44.8 °F 42.6 °F 30.09 in SSE 8.0 mph 11.0 mph 92% 0.00 in 837.00 W/m2
14:35 45.0 °F 42.8 °F 30.09 in SSE 10.0 mph 12.0 mph 92% 0.00 in 902.00 W/m2
14:40 45.2 °F 43.0 °F 30.09 in South 8.0 mph 12.0 mph 92% 0.00 in 287.00 W/m2
14:45 45.3 °F 42.8 °F 30.09 in SSE 6.0 mph 9.0 mph 91% 0.00 in 285.00 W/m2
14:51 45.4 °F 42.9 °F 30.09 in SSE 9.0 mph 10.0 mph 91% 0.00 in 316.00 W/m2
14:56 45.4 °F 43.2 °F 30.09 in Calm   10.0 mph 92% 0.00 in 258.00 W/m2
15:01 45.4 °F 43.2 °F 30.09 in Calm   7.0 mph 92% 0.00 in 185.00 W/m2
15:06 45.4 °F 43.2 °F 30.09 in South 5.0 mph 8.0 mph 92% 0.00 in 227.00 W/m2
15:11 45.4 °F 42.9 °F 30.09 in South 7.0 mph 8.0 mph 91% 0.00 in 320.00 W/m2
15:16 45.4 °F 42.9 °F 30.09 in South 3.0 mph 7.0 mph 91% 0.00 in 207.00 W/m2
15:21 45.3 °F 42.8 °F 30.09 in Calm   7.0 mph 91% 0.00 in 294.00 W/m2
15:26 45.3 °F 42.8 °F 30.09 in Calm     91% 0.00 in 336.00 W/m2
15:31 45.4 °F 42.9 °F 30.08 in SSE 1.0 mph 6.0 mph 91% 0.00 in 274.00 W/m2
15:36 45.6 °F 43.1 °F 30.09 in Calm   1.0 mph 91% 0.00 in 325.00 W/m2
15:41 45.7 °F 43.2 °F 30.08 in Calm   2.0 mph 91% 0.00 in 364.00 W/m2
15:46 45.8 °F 43.0 °F 30.08 in SSW 10.0 mph 13.0 mph 90% 0.00 in 425.00 W/m2
15:51 45.8 °F 42.8 °F 30.08 in South 6.0 mph 11.0 mph 89% 0.00 in 417.00 W/m2
15:56 45.9 °F 42.8 °F 30.08 in SSW 1.0 mph 10.0 mph 89% 0.00 in 439.00 W/m2
16:01 46.1 °F 43.0 °F 30.08 in SW 8.0 mph 12.0 mph 89% 0.00 in 657.00 W/m2
16:06 46.1 °F 42.8 °F 30.08 in Calm   12.0 mph 88% 0.00 in 179.00 W/m2
16:11 46.1 °F 42.8 °F 30.08 in Calm   11.0 mph 88% 0.00 in 156.00 W/m2
16:16 46.1 °F 42.8 °F 30.08 in SSW 3.0 mph 10.0 mph 88% 0.00 in 156.00 W/m2
16:21 46.0 °F 42.7 °F 30.08 in SW 9.0 mph 9.0 mph 88% 0.00 in 171.00 W/m2
16:26 46.0 °F 42.7 °F 30.08 in SW 1.0 mph 9.0 mph 88% 0.00 in 171.00 W/m2
16:31 46.0 °F 42.7 °F 30.08 in SW 3.0 mph 10.0 mph 88% 0.00 in 200.00 W/m2
16:41 45.8 °F 42.5 °F 30.07 in Calm   12.0 mph 88% 0.00 in 248.00 W/m2
16:42 45.7 °F 42.4 °F 30.08 in SSW 3.0 mph 3.0 mph 88% 0.00 in 244.00 W/m2
16:47 45.9 °F 42.8 °F 30.07 in Calm     89% 0.00 in 582.00 W/m2
16:52 45.9 °F 42.5 °F 30.08 in SSW 9.0 mph 12.0 mph 88% 0.00 in 506.00 W/m2
16:57 45.9 °F 42.0 °F 30.08 in SW 3.0 mph 10.0 mph 86% 0.00 in 100.00 W/m2
17:02 45.9 °F 42.0 °F 30.08 in SW 7.0 mph 11.0 mph 86% 0.00 in 127.00 W/m2
17:07 45.8 °F 41.9 °F 30.08 in SSW 5.0 mph 10.0 mph 86% 0.00 in 234.00 W/m2
17:12 45.8 °F 42.2 °F 30.08 in SSW 11.0 mph 12.0 mph 87% 0.00 in 156.00 W/m2
17:17 45.8 °F 42.2 °F 30.08 in SSW 8.0 mph 10.0 mph 87% 0.00 in 134.00 W/m2
17:22 45.7 °F 42.1 °F 30.08 in Calm   4.0 mph 87% 0.00 in 86.00 W/m2
17:27 45.7 °F 42.4 °F 30.07 in Calm     88% 0.00 in 95.00 W/m2
17:32 45.6 °F 42.3 °F 30.08 in Calm     88% 0.00 in 123.00 W/m2
17:37 45.6 °F 42.3 °F 30.08 in Calm     88% 0.00 in 171.00 W/m2
17:42 45.6 °F 42.5 °F 30.07 in Calm     89% 0.00 in 179.00 W/m2
17:47 45.4 °F 42.3 °F 30.08 in Calm     89% 0.00 in 120.00 W/m2
17:52 45.2 °F 42.2 °F 30.08 in Calm     89% 0.00 in 214.00 W/m2
17:57 45.0 °F 41.7 °F 30.08 in Calm     88% 0.00 in 239.00 W/m2
18:02 44.9 °F 41.6 °F 30.08 in Calm   9.0 mph 88% 0.00 in 220.00 W/m2
18:07 44.8 °F 41.8 °F 30.08 in SSW 7.0 mph 9.0 mph 89% 0.00 in 207.00 W/m2
18:12 44.7 °F 41.4 °F 30.08 in Calm   1.0 mph 88% 0.00 in 188.00 W/m2
18:17 44.6 °F 41.3 °F 30.09 in Calm     88% 0.00 in 149.00 W/m2
18:23 44.6 °F 41.6 °F 30.09 in SW 5.0 mph 9.0 mph 89% 0.00 in 77.00 W/m2
18:28 44.6 °F 41.6 °F 30.09 in Calm   1.0 mph 89% 0.00 in 65.00 W/m2
18:33 44.6 °F 41.3 °F 30.09 in Calm     88% 0.00 in 51.00 W/m2
18:38 44.5 °F 41.2 °F 30.09 in Calm     88% 0.00 in 46.00 W/m2
18:43 44.5 °F 41.5 °F 30.09 in Calm     89% 0.00 in 54.00 W/m2
18:48 44.5 °F 41.5 °F 30.09 in Calm     89% 0.00 in 35.00 W/m2
18:53 44.5 °F 41.5 °F 30.09 in Calm     89% 0.00 in 19.00 W/m2
18:58 44.4 °F 41.4 °F 30.09 in Calm     89% 0.00 in 14.00 W/m2
19:03 44.2 °F 41.2 °F 30.10 in Calm     89% 0.00 in 11.00 W/m2
19:08 44.0 °F 41.0 °F 30.09 in Calm     89% 0.00 in 7.00 W/m2
19:13 43.9 °F 40.9 °F 30.10 in Calm     89% 0.00 in 5.00 W/m2
19:18 43.7 °F 41.0 °F 30.10 in Calm     90% 0.00 in 0.00 W/m2
19:23 43.6 °F 40.9 °F 30.10 in Calm     90% 0.00 in 0.00 W/m2
19:28 43.4 °F 40.7 °F 30.10 in Calm     90% 0.00 in 0.00 W/m2
19:33 43.3 °F 40.6 °F 30.10 in Calm     90% 0.00 in 0.00 W/m2
19:38 43.1 °F 40.4 °F 30.10 in Calm     90% 0.00 in 0.00 W/m2
19:44 43.0 °F 40.3 °F 30.10 in Calm     90% 0.00 in 0.00 W/m2
19:49 42.9 °F 40.2 °F 30.10 in Calm     90% 0.00 in 0.00 W/m2
19:54 42.8 °F 40.1 °F 30.10 in Calm     90% 0.00 in 0.00 W/m2
19:59 42.7 °F 40.3 °F 30.10 in Calm     91% 0.00 in 0.00 W/m2
20:04 42.7 °F 40.3 °F 30.10 in Calm     91% 0.00 in 0.00 W/m2
20:09 42.6 °F 40.2 °F 30.11 in Calm     91% 0.00 in 0.00 W/m2
20:14 42.6 °F 40.2 °F 30.10 in Calm     91% 0.00 in 0.00 W/m2
20:19 42.5 °F 40.1 °F 30.10 in Calm     91% 0.00 in 0.00 W/m2
20:24 42.4 °F 40.0 °F 30.11 in Calm     91% 0.00 in 0.00 W/m2
20:29 42.4 °F 40.0 °F 30.11 in Calm     91% 0.00 in 0.00 W/m2
20:34 42.3 °F 39.9 °F 30.11 in Calm     91% 0.00 in 0.00 W/m2
20:39 42.3 °F 39.9 °F 30.11 in Calm     91% 0.00 in 0.00 W/m2
20:44 42.2 °F 39.8 °F 30.11 in Calm     91% 0.00 in 0.00 W/m2
20:49 42.2 °F 39.8 °F 30.11 in Calm     91% 0.00 in 0.00 W/m2
20:54 42.0 °F 39.6 °F 30.12 in Calm     91% 0.00 in 0.00 W/m2
20:59 42.0 °F 39.6 °F 30.12 in Calm     91% 0.00 in 0.00 W/m2
21:04 41.9 °F 39.5 °F 30.12 in Calm     91% 0.00 in 0.00 W/m2
21:09 41.8 °F 39.4 °F 30.12 in Calm     91% 0.00 in 0.00 W/m2
21:14 41.7 °F 39.3 °F 30.12 in Calm     91% 0.00 in 0.00 W/m2
21:19 41.6 °F 39.2 °F 30.12 in Calm     91% 0.00 in 0.00 W/m2
21:24 41.5 °F 39.1 °F 30.12 in Calm     91% 0.00 in 0.00 W/m2
21:29 41.5 °F 39.1 °F 30.12 in Calm   7.0 mph 91% 0.00 in 0.00 W/m2
21:34 41.5 °F 39.1 °F 30.13 in Calm   2.0 mph 91% 0.00 in 0.00 W/m2
21:39 41.5 °F 39.1 °F 30.12 in Calm   4.0 mph 91% 0.00 in 0.00 W/m2
21:44 41.5 °F 39.1 °F 30.13 in Calm   4.0 mph 91% 0.00 in 0.00 W/m2
21:49 41.5 °F 39.1 °F 30.12 in Calm   4.0 mph 91% 0.00 in 0.00 W/m2
21:54 41.5 °F 39.1 °F 30.13 in Calm   1.0 mph 91% 0.00 in 0.00 W/m2
21:59 41.4 °F 39.0 °F 30.12 in Calm     91% 0.00 in 0.00 W/m2
22:09 41.4 °F 39.0 °F 30.12 in Calm     91% 0.00 in 0.00 W/m2
22:14 41.4 °F 39.0 °F 30.13 in Calm     91% 0.00 in 0.00 W/m2
22:19 41.3 °F 38.9 °F 30.12 in Calm   4.0 mph 91% 0.00 in 0.00 W/m2
22:24 41.3 °F 38.9 °F 30.13 in ESE 4.0 mph 5.0 mph 91% 0.00 in 0.00 W/m2
22:29 41.3 °F 38.9 °F 30.13 in Calm   4.0 mph 91% 0.00 in 0.00 W/m2
22:34 41.2 °F 38.8 °F 30.12 in Calm   5.0 mph 91% 0.00 in 0.00 W/m2
22:39 41.1 °F 38.7 °F 30.13 in Calm   6.0 mph 91% 0.00 in 0.00 W/m2
22:44 41.0 °F 38.6 °F 30.13 in Calm   8.0 mph 91% 0.00 in 0.00 W/m2
22:49 40.9 °F 38.5 °F 30.12 in Calm   9.0 mph 91% 0.00 in 0.00 W/m2
22:54 40.8 °F 38.4 °F 30.13 in ESE 1.0 mph 8.0 mph 91% 0.00 in 0.00 W/m2
22:59 40.7 °F 38.3 °F 30.13 in Calm   4.0 mph 91% 0.00 in 0.00 W/m2
23:04 40.6 °F 38.2 °F 30.13 in East 4.0 mph 6.0 mph 91% 0.00 in 0.00 W/m2
23:09 40.5 °F 38.1 °F 30.13 in Calm   4.0 mph 91% 0.00 in 0.00 W/m2
23:14 40.4 °F 38.0 °F 30.14 in Calm     91% 0.00 in 0.00 W/m2
23:19 40.2 °F 37.8 °F 30.13 in Calm   4.0 mph 91% 0.00 in 0.00 W/m2
23:24 40.2 °F 37.8 °F 30.13 in Calm     91% 0.00 in 0.00 W/m2
23:29 40.1 °F 37.7 °F 30.14 in Calm     91% 0.00 in 0.00 W/m2
23:31 40.1 °F 37.7 °F 30.14 in Calm     91% 0.00 in 0.00 W/m2
23:36 40.0 °F 37.6 °F 30.14 in Calm     91% 0.00 in 0.00 W/m2
23:41 39.9 °F 37.5 °F 30.14 in Calm     91% 0.00 in 0.00 W/m2
23:46 39.9 °F 37.5 °F 30.14 in Calm     91% 0.00 in 0.00 W/m2
23:51 39.8 °F 37.4 °F 30.14 in Calm     91% 0.00 in 0.00 W/m2
23:56 39.7 °F 37.3 °F 30.14 in Calm     91% 0.00 in 0.00 W/m2
Foresthill Weather
 WU-history PHP script courtesy of   Juneau County Weather.
powered by Cumulus v1.9.3 (1059)
Ambient Weather VWS v14.00
Top Contact Website Map Copyright © 2007 - 2018 Foresthillweather.com Never base important decisions on this or any weather information obtained from the Internet